sensor_id;sensor_type;location;lat;lon;timestamp;P1;durP1;ratioP1;P2;durP2;ratioP2
4244;SDS011;2136;48.502;9.194;2022-08-19T00:01:15;32.13;;;24.63;;
4244;SDS011;2136;48.502;9.194;2022-08-19T00:03:42;30.87;;;24.33;;
4244;SDS011;2136;48.502;9.194;2022-08-19T00:06:09;31.80;;;24.83;;
4244;SDS011;2136;48.502;9.194;2022-08-19T00:08:36;32.57;;;24.87;;
4244;SDS011;2136;48.502;9.194;2022-08-19T00:11:03;38.60;;;27.50;;
4244;SDS011;2136;48.502;9.194;2022-08-19T00:13:30;36.10;;;29.90;;
4244;SDS011;2136;48.502;9.194;2022-08-19T00:15:57;34.90;;;28.10;;
4244;SDS011;2136;48.502;9.194;2022-08-19T00:18:26;38.30;;;28.43;;
4244;SDS011;2136;48.502;9.194;2022-08-19T00:20:52;35.60;;;28.73;;
4244;SDS011;2136;48.502;9.194;2022-08-19T00:23:19;47.60;;;30.03;;
4244;SDS011;2136;48.502;9.194;2022-08-19T00:25:46;35.23;;;26.37;;
4244;SDS011;2136;48.502;9.194;2022-08-19T00:28:13;37.57;;;26.10;;
4244;SDS011;2136;48.502;9.194;2022-08-19T00:30:40;31.47;;;25.30;;
4244;SDS011;2136;48.502;9.194;2022-08-19T00:33:07;32.63;;;25.37;;
4244;SDS011;2136;48.502;9.194;2022-08-19T00:35:35;33.03;;;24.60;;
4244;SDS011;2136;48.502;9.194;2022-08-19T00:38:03;30.73;;;23.60;;
4244;SDS011;2136;48.502;9.194;2022-08-19T00:40:31;30.30;;;25.20;;
4244;SDS011;2136;48.502;9.194;2022-08-19T00:42:58;33.13;;;24.97;;
4244;SDS011;2136;48.502;9.194;2022-08-19T00:45:26;35.63;;;27.10;;
4244;SDS011;2136;48.502;9.194;2022-08-19T00:47:57;34.73;;;23.73;;
4244;SDS011;2136;48.502;9.194;2022-08-19T00:50:27;30.10;;;24.30;;
4244;SDS011;2136;48.502;9.194;2022-08-19T00:52:56;36.70;;;26.73;;
4244;SDS011;2136;48.502;9.194;2022-08-19T00:55:25;32.03;;;25.30;;
4244;SDS011;2136;48.502;9.194;2022-08-19T00:57:55;31.57;;;25.30;;
4244;SDS011;2136;48.502;9.194;2022-08-19T01:00:24;30.27;;;25.20;;
4244;SDS011;2136;48.502;9.194;2022-08-19T01:02:52;31.40;;;23.97;;
4244;SDS011;2136;48.502;9.194;2022-08-19T01:05:21;32.03;;;25.43;;
4244;SDS011;2136;48.502;9.194;2022-08-19T01:07:49;32.17;;;25.70;;
4244;SDS011;2136;48.502;9.194;2022-08-19T01:10:19;33.75;;;24.40;;
4244;SDS011;2136;48.502;9.194;2022-08-19T01:12:49;34.80;;;25.93;;
4244;SDS011;2136;48.502;9.194;2022-08-19T01:15:18;31.27;;;25.20;;
4244;SDS011;2136;48.502;9.194;2022-08-19T01:17:47;33.63;;;25.40;;
4244;SDS011;2136;48.502;9.194;2022-08-19T01:20:16;37.27;;;24.20;;
4244;SDS011;2136;48.502;9.194;2022-08-19T01:22:46;31.90;;;23.37;;
4244;SDS011;2136;48.502;9.194;2022-08-19T01:25:16;31.30;;;22.30;;
4244;SDS011;2136;48.502;9.194;2022-08-19T01:27:47;27.80;;;23.23;;
4244;SDS011;2136;48.502;9.194;2022-08-19T01:30:17;35.53;;;24.23;;
4244;SDS011;2136;48.502;9.194;2022-08-19T01:32:47;25.87;;;20.70;;
4244;SDS011;2136;48.502;9.194;2022-08-19T01:35:14;30.13;;;24.80;;
4244;SDS011;2136;48.502;9.194;2022-08-19T01:37:49;31.77;;;23.40;;
4244;SDS011;2136;48.502;9.194;2022-08-19T01:40:19;30.97;;;23.30;;
4244;SDS011;2136;48.502;9.194;2022-08-19T01:42:48;30.83;;;23.63;;
4244;SDS011;2136;48.502;9.194;2022-08-19T01:45:16;29.90;;;21.37;;
4244;SDS011;2136;48.502;9.194;2022-08-19T01:47:43;28.63;;;22.87;;
4244;SDS011;2136;48.502;9.194;2022-08-19T01:50:10;29.83;;;23.77;;
4244;SDS011;2136;48.502;9.194;2022-08-19T01:52:39;29.27;;;22.40;;
4244;SDS011;2136;48.502;9.194;2022-08-19T01:55:09;31.20;;;23.23;;
4244;SDS011;2136;48.502;9.194;2022-08-19T01:57:38;34.23;;;23.23;;
4244;SDS011;2136;48.502;9.194;2022-08-19T02:00:09;25.40;;;20.73;;
4244;SDS011;2136;48.502;9.194;2022-08-19T02:02:40;26.60;;;20.47;;
4244;SDS011;2136;48.502;9.194;2022-08-19T02:05:07;26.53;;;20.47;;
4244;SDS011;2136;48.502;9.194;2022-08-19T02:07:35;30.90;;;23.40;;
4244;SDS011;2136;48.502;9.194;2022-08-19T02:10:02;31.40;;;22.70;;
4244;SDS011;2136;48.502;9.194;2022-08-19T02:12:31;27.73;;;22.27;;
4244;SDS011;2136;48.502;9.194;2022-08-19T02:14:58;29.97;;;22.70;;
4244;SDS011;2136;48.502;9.194;2022-08-19T02:17:26;30.27;;;22.45;;
4244;SDS011;2136;48.502;9.194;2022-08-19T02:19:54;27.73;;;21.40;;
4244;SDS011;2136;48.502;9.194;2022-08-19T02:22:21;30.20;;;21.70;;
4244;SDS011;2136;48.502;9.194;2022-08-19T02:24:50;26.50;;;19.97;;
4244;SDS011;2136;48.502;9.194;2022-08-19T02:27:17;34.43;;;21.43;;
4244;SDS011;2136;48.502;9.194;2022-08-19T02:29:46;29.10;;;21.70;;
4244;SDS011;2136;48.502;9.194;2022-08-19T02:32:15;33.83;;;21.40;;
4244;SDS011;2136;48.502;9.194;2022-08-19T02:34:43;34.00;;;21.87;;
4244;SDS011;2136;48.502;9.194;2022-08-19T02:37:10;30.37;;;21.83;;
4244;SDS011;2136;48.502;9.194;2022-08-19T02:39:57;30.07;;;20.10;;
4244;SDS011;2136;48.502;9.194;2022-08-19T02:42:23;30.20;;;21.43;;
4244;SDS011;2136;48.502;9.194;2022-08-19T02:44:52;28.93;;;21.50;;
4244;SDS011;2136;48.502;9.194;2022-08-19T02:47:21;31.17;;;21.67;;
4244;SDS011;2136;48.502;9.194;2022-08-19T02:49:48;31.60;;;20.83;;
4244;SDS011;2136;48.502;9.194;2022-08-19T02:52:15;29.13;;;21.30;;
4244;SDS011;2136;48.502;9.194;2022-08-19T02:54:42;29.70;;;21.53;;
4244;SDS011;2136;48.502;9.194;2022-08-19T02:57:09;31.40;;;22.33;;
4244;SDS011;2136;48.502;9.194;2022-08-19T02:59:36;26.37;;;21.00;;
4244;SDS011;2136;48.502;9.194;2022-08-19T03:02:06;29.33;;;22.73;;
4244;SDS011;2136;48.502;9.194;2022-08-19T03:04:32;30.17;;;20.90;;
4244;SDS011;2136;48.502;9.194;2022-08-19T03:06:59;30.07;;;22.77;;
4244;SDS011;2136;48.502;9.194;2022-08-19T03:09:26;32.30;;;22.50;;
4244;SDS011;2136;48.502;9.194;2022-08-19T03:11:54;32.47;;;21.40;;
4244;SDS011;2136;48.502;9.194;2022-08-19T03:14:21;28.67;;;21.20;;
4244;SDS011;2136;48.502;9.194;2022-08-19T03:16:49;27.60;;;20.00;;
4244;SDS011;2136;48.502;9.194;2022-08-19T03:19:19;29.97;;;23.00;;
4244;SDS011;2136;48.502;9.194;2022-08-19T03:21:47;29.47;;;20.80;;
4244;SDS011;2136;48.502;9.194;2022-08-19T03:24:15;30.13;;;21.00;;
4244;SDS011;2136;48.502;9.194;2022-08-19T03:26:44;29.73;;;22.10;;
4244;SDS011;2136;48.502;9.194;2022-08-19T03:29:13;32.30;;;23.07;;
4244;SDS011;2136;48.502;9.194;2022-08-19T03:31:41;28.40;;;20.80;;
4244;SDS011;2136;48.502;9.194;2022-08-19T03:34:09;32.00;;;22.27;;
4244;SDS011;2136;48.502;9.194;2022-08-19T03:36:39;30.60;;;22.30;;
4244;SDS011;2136;48.502;9.194;2022-08-19T03:39:06;27.30;;;21.50;;
4244;SDS011;2136;48.502;9.194;2022-08-19T03:41:41;29.63;;;20.40;;
4244;SDS011;2136;48.502;9.194;2022-08-19T03:44:09;31.00;;;21.93;;
4244;SDS011;2136;48.502;9.194;2022-08-19T03:46:36;29.13;;;21.00;;
4244;SDS011;2136;48.502;9.194;2022-08-19T03:49:03;35.20;;;22.60;;
4244;SDS011;2136;48.502;9.194;2022-08-19T03:51:32;30.70;;;23.17;;
4244;SDS011;2136;48.502;9.194;2022-08-19T03:54:03;28.73;;;22.47;;
4244;SDS011;2136;48.502;9.194;2022-08-19T03:56:32;36.90;;;21.87;;
4244;SDS011;2136;48.502;9.194;2022-08-19T03:59:01;32.20;;;22.47;;
4244;SDS011;2136;48.502;9.194;2022-08-19T04:01:29;33.50;;;22.37;;
4244;SDS011;2136;48.502;9.194;2022-08-19T04:03:56;29.57;;;21.93;;
4244;SDS011;2136;48.502;9.194;2022-08-19T04:06:25;35.43;;;24.30;;
4244;SDS011;2136;48.502;9.194;2022-08-19T04:08:53;30.33;;;21.60;;
4244;SDS011;2136;48.502;9.194;2022-08-19T04:11:25;30.97;;;22.03;;
4244;SDS011;2136;48.502;9.194;2022-08-19T04:13:53;35.67;;;21.90;;
4244;SDS011;2136;48.502;9.194;2022-08-19T04:16:22;34.67;;;22.77;;
4244;SDS011;2136;48.502;9.194;2022-08-19T04:18:53;31.93;;;22.23;;
4244;SDS011;2136;48.502;9.194;2022-08-19T04:21:22;35.43;;;24.50;;
4244;SDS011;2136;48.502;9.194;2022-08-19T04:23:51;32.17;;;22.37;;
4244;SDS011;2136;48.502;9.194;2022-08-19T04:26:20;31.03;;;22.23;;
4244;SDS011;2136;48.502;9.194;2022-08-19T04:28:50;33.57;;;23.27;;
4244;SDS011;2136;48.502;9.194;2022-08-19T04:31:23;37.47;;;24.20;;
4244;SDS011;2136;48.502;9.194;2022-08-19T04:33:52;32.93;;;23.33;;
4244;SDS011;2136;48.502;9.194;2022-08-19T04:36:20;32.37;;;22.53;;
4244;SDS011;2136;48.502;9.194;2022-08-19T04:38:49;32.07;;;22.40;;
4244;SDS011;2136;48.502;9.194;2022-08-19T04:41:19;32.70;;;22.80;;
4244;SDS011;2136;48.502;9.194;2022-08-19T04:44:04;35.70;;;22.50;;
4244;SDS011;2136;48.502;9.194;2022-08-19T04:46:32;32.30;;;22.90;;
4244;SDS011;2136;48.502;9.194;2022-08-19T04:48:59;38.60;;;25.37;;
4244;SDS011;2136;48.502;9.194;2022-08-19T04:51:30;36.90;;;24.63;;
4244;SDS011;2136;48.502;9.194;2022-08-19T04:53:58;36.70;;;21.70;;
4244;SDS011;2136;48.502;9.194;2022-08-19T04:56:25;33.47;;;22.50;;
4244;SDS011;2136;48.502;9.194;2022-08-19T04:58:53;37.93;;;26.23;;
4244;SDS011;2136;48.502;9.194;2022-08-19T05:01:23;37.60;;;23.10;;
4244;SDS011;2136;48.502;9.194;2022-08-19T05:03:52;35.33;;;24.97;;
4244;SDS011;2136;48.502;9.194;2022-08-19T05:06:19;34.97;;;23.17;;
4244;SDS011;2136;48.502;9.194;2022-08-19T05:08:47;40.43;;;23.37;;
4244;SDS011;2136;48.502;9.194;2022-08-19T05:11:16;35.10;;;22.97;;
4244;SDS011;2136;48.502;9.194;2022-08-19T05:13:46;34.03;;;24.77;;
4244;SDS011;2136;48.502;9.194;2022-08-19T05:16:14;32.40;;;24.53;;
4244;SDS011;2136;48.502;9.194;2022-08-19T05:18:44;37.43;;;23.30;;
4244;SDS011;2136;48.502;9.194;2022-08-19T05:21:29;40.50;;;22.67;;
4244;SDS011;2136;48.502;9.194;2022-08-19T05:24:14;38.13;;;23.67;;
4244;SDS011;2136;48.502;9.194;2022-08-19T05:26:42;42.73;;;23.80;;
4244;SDS011;2136;48.502;9.194;2022-08-19T05:29:12;34.83;;;22.37;;
4244;SDS011;2136;48.502;9.194;2022-08-19T05:31:40;31.87;;;22.33;;
4244;SDS011;2136;48.502;9.194;2022-08-19T05:34:08;34.10;;;22.93;;
4244;SDS011;2136;48.502;9.194;2022-08-19T05:36:37;39.37;;;24.93;;
4244;SDS011;2136;48.502;9.194;2022-08-19T05:39:05;31.20;;;21.67;;
4244;SDS011;2136;48.502;9.194;2022-08-19T05:41:33;33.43;;;24.23;;
4244;SDS011;2136;48.502;9.194;2022-08-19T05:44:00;38.03;;;25.17;;
4244;SDS011;2136;48.502;9.194;2022-08-19T05:46:31;35.13;;;22.97;;
4244;SDS011;2136;48.502;9.194;2022-08-19T05:48:58;32.57;;;22.83;;
4244;SDS011;2136;48.502;9.194;2022-08-19T05:51:26;33.30;;;22.77;;
4244;SDS011;2136;48.502;9.194;2022-08-19T05:53:53;40.23;;;25.30;;
4244;SDS011;2136;48.502;9.194;2022-08-19T05:56:20;34.03;;;24.37;;
4244;SDS011;2136;48.502;9.194;2022-08-19T05:58:46;41.43;;;25.70;;
4244;SDS011;2136;48.502;9.194;2022-08-19T06:01:14;35.73;;;25.97;;
4244;SDS011;2136;48.502;9.194;2022-08-19T06:03:43;38.80;;;24.90;;
4244;SDS011;2136;48.502;9.194;2022-08-19T06:06:11;40.57;;;25.90;;
4244;SDS011;2136;48.502;9.194;2022-08-19T06:08:40;39.87;;;25.60;;
4244;SDS011;2136;48.502;9.194;2022-08-19T06:11:14;36.77;;;24.83;;
4244;SDS011;2136;48.502;9.194;2022-08-19T06:13:43;33.13;;;24.97;;
4244;SDS011;2136;48.502;9.194;2022-08-19T06:16:16;36.53;;;25.17;;
4244;SDS011;2136;48.502;9.194;2022-08-19T06:18:47;38.03;;;26.03;;
4244;SDS011;2136;48.502;9.194;2022-08-19T06:21:16;37.27;;;25.67;;
4244;SDS011;2136;48.502;9.194;2022-08-19T06:23:45;37.87;;;24.90;;
4244;SDS011;2136;48.502;9.194;2022-08-19T06:26:12;37.67;;;24.77;;
4244;SDS011;2136;48.502;9.194;2022-08-19T06:28:39;39.60;;;25.40;;
4244;SDS011;2136;48.502;9.194;2022-08-19T06:31:08;41.03;;;26.30;;
4244;SDS011;2136;48.502;9.194;2022-08-19T06:33:35;39.27;;;25.90;;
4244;SDS011;2136;48.502;9.194;2022-08-19T06:36:04;41.70;;;27.40;;
4244;SDS011;2136;48.502;9.194;2022-08-19T06:38:31;39.37;;;26.30;;
4244;SDS011;2136;48.502;9.194;2022-08-19T06:41:01;37.13;;;26.73;;
4244;SDS011;2136;48.502;9.194;2022-08-19T06:43:29;41.20;;;26.67;;
4244;SDS011;2136;48.502;9.194;2022-08-19T06:45:56;41.67;;;26.73;;
4244;SDS011;2136;48.502;9.194;2022-08-19T06:48:23;44.97;;;27.43;;
4244;SDS011;2136;48.502;9.194;2022-08-19T06:50:50;39.17;;;27.53;;
4244;SDS011;2136;48.502;9.194;2022-08-19T06:53:17;42.90;;;28.73;;
4244;SDS011;2136;48.502;9.194;2022-08-19T06:55:45;48.07;;;29.30;;
4244;SDS011;2136;48.502;9.194;2022-08-19T06:58:13;45.70;;;27.23;;
4244;SDS011;2136;48.502;9.194;2022-08-19T07:00:40;38.83;;;28.00;;
4244;SDS011;2136;48.502;9.194;2022-08-19T07:03:07;40.30;;;27.30;;
4244;SDS011;2136;48.502;9.194;2022-08-19T07:05:37;40.17;;;28.63;;
4244;SDS011;2136;48.502;9.194;2022-08-19T07:08:05;39.87;;;28.00;;
4244;SDS011;2136;48.502;9.194;2022-08-19T07:10:32;39.57;;;27.93;;
4244;SDS011;2136;48.502;9.194;2022-08-19T07:13:00;41.30;;;27.70;;
4244;SDS011;2136;48.502;9.194;2022-08-19T07:15:28;42.70;;;29.87;;
4244;SDS011;2136;48.502;9.194;2022-08-19T07:17:55;43.80;;;28.03;;
4244;SDS011;2136;48.502;9.194;2022-08-19T07:20:22;39.77;;;28.77;;
4244;SDS011;2136;48.502;9.194;2022-08-19T07:22:49;47.70;;;30.60;;
4244;SDS011;2136;48.502;9.194;2022-08-19T07:25:16;51.70;;;30.20;;
4244;SDS011;2136;48.502;9.194;2022-08-19T07:27:45;47.00;;;29.77;;
4244;SDS011;2136;48.502;9.194;2022-08-19T07:30:15;44.00;;;28.73;;
4244;SDS011;2136;48.502;9.194;2022-08-19T07:32:43;42.97;;;29.40;;
4244;SDS011;2136;48.502;9.194;2022-08-19T07:35:10;43.50;;;28.77;;
4244;SDS011;2136;48.502;9.194;2022-08-19T07:37:37;42.03;;;28.60;;
4244;SDS011;2136;48.502;9.194;2022-08-19T07:40:09;41.70;;;28.43;;
4244;SDS011;2136;48.502;9.194;2022-08-19T07:42:37;42.37;;;29.70;;
4244;SDS011;2136;48.502;9.194;2022-08-19T07:45:04;44.20;;;29.87;;
4244;SDS011;2136;48.502;9.194;2022-08-19T07:47:33;44.10;;;29.30;;
4244;SDS011;2136;48.502;9.194;2022-08-19T07:50:01;53.53;;;28.53;;
4244;SDS011;2136;48.502;9.194;2022-08-19T07:52:30;38.80;;;27.30;;
4244;SDS011;2136;48.502;9.194;2022-08-19T07:54:57;43.57;;;27.80;;
4244;SDS011;2136;48.502;9.194;2022-08-19T07:57:25;49.90;;;29.73;;
4244;SDS011;2136;48.502;9.194;2022-08-19T07:59:51;48.35;;;32.97;;
4244;SDS011;2136;48.502;9.194;2022-08-19T08:02:19;47.90;;;30.30;;
4244;SDS011;2136;48.502;9.194;2022-08-19T08:04:46;45.40;;;30.60;;
4244;SDS011;2136;48.502;9.194;2022-08-19T08:07:31;52.93;;;29.40;;
4244;SDS011;2136;48.502;9.194;2022-08-19T08:10:15;44.63;;;29.93;;
4244;SDS011;2136;48.502;9.194;2022-08-19T08:12:42;53.17;;;33.80;;
4244;SDS011;2136;48.502;9.194;2022-08-19T08:15:11;52.43;;;27.60;;
4244;SDS011;2136;48.502;9.194;2022-08-19T08:17:43;45.07;;;28.70;;
4244;SDS011;2136;48.502;9.194;2022-08-19T08:20:11;43.07;;;29.37;;
4244;SDS011;2136;48.502;9.194;2022-08-19T08:22:43;43.10;;;29.90;;
4244;SDS011;2136;48.502;9.194;2022-08-19T08:25:28;49.93;;;32.37;;
4244;SDS011;2136;48.502;9.194;2022-08-19T08:27:56;46.67;;;29.13;;
4244;SDS011;2136;48.502;9.194;2022-08-19T08:30:25;41.70;;;28.20;;
4244;SDS011;2136;48.502;9.194;2022-08-19T08:32:53;40.47;;;28.13;;
4244;SDS011;2136;48.502;9.194;2022-08-19T08:35:20;53.97;;;32.70;;
4244;SDS011;2136;48.502;9.194;2022-08-19T08:37:51;42.00;;;29.83;;
4244;SDS011;2136;48.502;9.194;2022-08-19T08:40:20;44.47;;;30.90;;
4244;SDS011;2136;48.502;9.194;2022-08-19T08:42:53;50.57;;;29.27;;
4244;SDS011;2136;48.502;9.194;2022-08-19T08:45:25;47.03;;;31.40;;
4244;SDS011;2136;48.502;9.194;2022-08-19T08:47:53;45.80;;;30.27;;
4244;SDS011;2136;48.502;9.194;2022-08-19T08:50:25;44.30;;;29.53;;
4244;SDS011;2136;48.502;9.194;2022-08-19T08:53:02;49.87;;;29.53;;
4244;SDS011;2136;48.502;9.194;2022-08-19T08:55:31;46.17;;;31.07;;
4244;SDS011;2136;48.502;9.194;2022-08-19T08:57:59;46.60;;;30.13;;
4244;SDS011;2136;48.502;9.194;2022-08-19T09:00:30;46.43;;;30.40;;
4244;SDS011;2136;48.502;9.194;2022-08-19T09:02:59;44.40;;;30.63;;
4244;SDS011;2136;48.502;9.194;2022-08-19T09:05:30;46.30;;;31.00;;
4244;SDS011;2136;48.502;9.194;2022-08-19T09:08:07;44.37;;;29.80;;
4244;SDS011;2136;48.502;9.194;2022-08-19T09:10:37;53.70;;;33.73;;
4244;SDS011;2136;48.502;9.194;2022-08-19T09:13:07;47.07;;;30.70;;
4244;SDS011;2136;48.502;9.194;2022-08-19T09:15:43;44.80;;;30.23;;
4244;SDS011;2136;48.502;9.194;2022-08-19T09:18:14;43.77;;;29.50;;
4244;SDS011;2136;48.502;9.194;2022-08-19T09:20:42;46.67;;;31.03;;
4244;SDS011;2136;48.502;9.194;2022-08-19T09:23:10;52.10;;;31.73;;
4244;SDS011;2136;48.502;9.194;2022-08-19T09:25:37;46.27;;;29.90;;
4244;SDS011;2136;48.502;9.194;2022-08-19T09:28:05;46.50;;;29.67;;
4244;SDS011;2136;48.502;9.194;2022-08-19T09:30:32;43.37;;;30.60;;
4244;SDS011;2136;48.502;9.194;2022-08-19T09:33:04;42.50;;;30.00;;
4244;SDS011;2136;48.502;9.194;2022-08-19T09:35:32;48.53;;;30.73;;
4244;SDS011;2136;48.502;9.194;2022-08-19T09:38:00;46.10;;;31.77;;
4244;SDS011;2136;48.502;9.194;2022-08-19T09:40:29;44.43;;;30.63;;
4244;SDS011;2136;48.502;9.194;2022-08-19T09:42:57;44.93;;;30.77;;
4244;SDS011;2136;48.502;9.194;2022-08-19T09:45:25;49.63;;;31.00;;
4244;SDS011;2136;48.502;9.194;2022-08-19T09:47:52;49.47;;;31.23;;
4244;SDS011;2136;48.502;9.194;2022-08-19T09:50:19;45.27;;;31.30;;
4244;SDS011;2136;48.502;9.194;2022-08-19T09:52:47;44.87;;;31.63;;
4244;SDS011;2136;48.502;9.194;2022-08-19T09:55:14;47.70;;;30.70;;
4244;SDS011;2136;48.502;9.194;2022-08-19T09:57:43;48.77;;;30.87;;
4244;SDS011;2136;48.502;9.194;2022-08-19T10:00:10;50.57;;;31.90;;
4244;SDS011;2136;48.502;9.194;2022-08-19T10:02:38;50.03;;;31.50;;
4244;SDS011;2136;48.502;9.194;2022-08-19T10:05:05;48.70;;;31.70;;
4244;SDS011;2136;48.502;9.194;2022-08-19T10:07:49;41.17;;;29.03;;
4244;SDS011;2136;48.502;9.194;2022-08-19T10:10:16;43.40;;;29.40;;
4244;SDS011;2136;48.502;9.194;2022-08-19T10:12:45;41.70;;;28.57;;
4244;SDS011;2136;48.502;9.194;2022-08-19T10:15:12;44.87;;;31.23;;
4244;SDS011;2136;48.502;9.194;2022-08-19T10:17:39;43.97;;;27.90;;
4244;SDS011;2136;48.502;9.194;2022-08-19T10:20:07;50.57;;;32.10;;
4244;SDS011;2136;48.502;9.194;2022-08-19T10:22:34;41.70;;;30.13;;
4244;SDS011;2136;48.502;9.194;2022-08-19T10:25:02;42.37;;;29.17;;
4244;SDS011;2136;48.502;9.194;2022-08-19T10:27:30;42.47;;;28.20;;
4244;SDS011;2136;48.502;9.194;2022-08-19T10:29:59;39.47;;;27.20;;
4244;SDS011;2136;48.502;9.194;2022-08-19T10:32:26;43.63;;;29.33;;
4244;SDS011;2136;48.502;9.194;2022-08-19T10:34:54;44.03;;;28.13;;
4244;SDS011;2136;48.502;9.194;2022-08-19T10:37:21;38.10;;;28.00;;
4244;SDS011;2136;48.502;9.194;2022-08-19T10:39:48;42.07;;;28.33;;
4244;SDS011;2136;48.502;9.194;2022-08-19T10:42:15;41.07;;;28.90;;
4244;SDS011;2136;48.502;9.194;2022-08-19T10:44:43;42.08;;;29.80;;
4244;SDS011;2136;48.502;9.194;2022-08-19T10:47:12;40.63;;;26.90;;
4244;SDS011;2136;48.502;9.194;2022-08-19T10:49:39;42.47;;;27.17;;
4244;SDS011;2136;48.502;9.194;2022-08-19T10:52:20;42.57;;;30.30;;
4244;SDS011;2136;48.502;9.194;2022-08-19T10:55:02;39.53;;;26.40;;
4244;SDS011;2136;48.502;9.194;2022-08-19T10:57:49;42.30;;;29.87;;
4244;SDS011;2136;48.502;9.194;2022-08-19T11:00:17;42.67;;;29.10;;
4244;SDS011;2136;48.502;9.194;2022-08-19T11:02:46;41.50;;;27.23;;
4244;SDS011;2136;48.502;9.194;2022-08-19T11:05:13;38.77;;;28.20;;
4244;SDS011;2136;48.502;9.194;2022-08-19T11:07:42;44.43;;;29.37;;
4244;SDS011;2136;48.502;9.194;2022-08-19T11:10:11;42.90;;;30.60;;
4244;SDS011;2136;48.502;9.194;2022-08-19T11:12:39;37.67;;;26.57;;
4244;SDS011;2136;48.502;9.194;2022-08-19T11:15:07;43.30;;;28.83;;
4244;SDS011;2136;48.502;9.194;2022-08-19T11:17:36;43.73;;;28.50;;
4244;SDS011;2136;48.502;9.194;2022-08-19T11:20:07;43.73;;;26.90;;
4244;SDS011;2136;48.502;9.194;2022-08-19T11:22:35;45.37;;;28.43;;
4244;SDS011;2136;48.502;9.194;2022-08-19T11:25:02;40.90;;;27.70;;
4244;SDS011;2136;48.502;9.194;2022-08-19T11:27:29;39.97;;;27.63;;
4244;SDS011;2136;48.502;9.194;2022-08-19T11:29:56;42.77;;;27.17;;
4244;SDS011;2136;48.502;9.194;2022-08-19T11:32:23;53.83;;;31.97;;
4244;SDS011;2136;48.502;9.194;2022-08-19T11:34:50;37.70;;;27.63;;
4244;SDS011;2136;48.502;9.194;2022-08-19T11:37:19;39.43;;;28.00;;
4244;SDS011;2136;48.502;9.194;2022-08-19T11:39:45;44.40;;;28.87;;
4244;SDS011;2136;48.502;9.194;2022-08-19T11:42:12;42.00;;;29.27;;
4244;SDS011;2136;48.502;9.194;2022-08-19T11:44:56;39.03;;;29.30;;
4244;SDS011;2136;48.502;9.194;2022-08-19T11:47:23;42.20;;;28.30;;
4244;SDS011;2136;48.502;9.194;2022-08-19T11:49:51;42.90;;;27.67;;
4244;SDS011;2136;48.502;9.194;2022-08-19T11:52:19;45.57;;;28.43;;
4244;SDS011;2136;48.502;9.194;2022-08-19T11:54:46;40.90;;;28.67;;
4244;SDS011;2136;48.502;9.194;2022-08-19T11:57:13;41.20;;;29.40;;
4244;SDS011;2136;48.502;9.194;2022-08-19T11:59:41;39.47;;;28.40;;
4244;SDS011;2136;48.502;9.194;2022-08-19T12:02:13;41.13;;;27.93;;
4244;SDS011;2136;48.502;9.194;2022-08-19T12:04:40;40.20;;;28.23;;
4244;SDS011;2136;48.502;9.194;2022-08-19T12:07:07;41.53;;;28.30;;
4244;SDS011;2136;48.502;9.194;2022-08-19T12:09:35;42.37;;;27.90;;
4244;SDS011;2136;48.502;9.194;2022-08-19T12:12:04;40.60;;;28.30;;
4244;SDS011;2136;48.502;9.194;2022-08-19T12:14:31;45.47;;;28.87;;
4244;SDS011;2136;48.502;9.194;2022-08-19T12:16:58;43.40;;;27.23;;
4244;SDS011;2136;48.502;9.194;2022-08-19T12:19:25;39.93;;;28.73;;
4244;SDS011;2136;48.502;9.194;2022-08-19T12:21:52;39.17;;;26.10;;
4244;SDS011;2136;48.502;9.194;2022-08-19T12:24:20;41.80;;;28.27;;
4244;SDS011;2136;48.502;9.194;2022-08-19T12:26:49;42.30;;;30.13;;
4244;SDS011;2136;48.502;9.194;2022-08-19T12:29:17;42.03;;;27.83;;
4244;SDS011;2136;48.502;9.194;2022-08-19T12:31:43;37.63;;;26.80;;
4244;SDS011;2136;48.502;9.194;2022-08-19T12:34:11;35.50;;;26.27;;
4244;SDS011;2136;48.502;9.194;2022-08-19T12:36:38;46.23;;;27.30;;
4244;SDS011;2136;48.502;9.194;2022-08-19T12:39:05;39.43;;;27.40;;
4244;SDS011;2136;48.502;9.194;2022-08-19T12:41:33;35.73;;;26.50;;
4244;SDS011;2136;48.502;9.194;2022-08-19T12:44:02;32.37;;;26.20;;
4244;SDS011;2136;48.502;9.194;2022-08-19T12:46:33;38.40;;;27.27;;
4244;SDS011;2136;48.502;9.194;2022-08-19T12:49:00;35.23;;;26.10;;
4244;SDS011;2136;48.502;9.194;2022-08-19T12:51:28;40.50;;;26.00;;
4244;SDS011;2136;48.502;9.194;2022-08-19T12:53:56;34.80;;;25.67;;
4244;SDS011;2136;48.502;9.194;2022-08-19T12:56:23;41.00;;;27.90;;
4244;SDS011;2136;48.502;9.194;2022-08-19T12:58:50;32.90;;;26.53;;
4244;SDS011;2136;48.502;9.194;2022-08-19T13:01:18;33.57;;;24.77;;
4244;SDS011;2136;48.502;9.194;2022-08-19T13:03:45;33.13;;;25.30;;
4244;SDS011;2136;48.502;9.194;2022-08-19T13:06:13;34.10;;;26.63;;
4244;SDS011;2136;48.502;9.194;2022-08-19T13:08:41;33.43;;;25.87;;
4244;SDS011;2136;48.502;9.194;2022-08-19T13:11:08;38.17;;;26.43;;
4244;SDS011;2136;48.502;9.194;2022-08-19T13:13:37;42.93;;;26.70;;
4244;SDS011;2136;48.502;9.194;2022-08-19T13:16:06;43.20;;;25.67;;
4244;SDS011;2136;48.502;9.194;2022-08-19T13:18:36;43.90;;;25.93;;
4244;SDS011;2136;48.502;9.194;2022-08-19T13:21:03;38.90;;;24.83;;
4244;SDS011;2136;48.502;9.194;2022-08-19T13:23:31;37.87;;;26.57;;
4244;SDS011;2136;48.502;9.194;2022-08-19T13:25:59;41.73;;;26.27;;
4244;SDS011;2136;48.502;9.194;2022-08-19T13:28:27;33.47;;;25.70;;
4244;SDS011;2136;48.502;9.194;2022-08-19T13:31:15;34.17;;;25.67;;
4244;SDS011;2136;48.502;9.194;2022-08-19T13:34:01;34.80;;;24.80;;
4244;SDS011;2136;48.502;9.194;2022-08-19T13:36:29;33.40;;;25.77;;
4244;SDS011;2136;48.502;9.194;2022-08-19T13:38:56;33.27;;;25.47;;
4244;SDS011;2136;48.502;9.194;2022-08-19T13:41:23;42.07;;;27.20;;
4244;SDS011;2136;48.502;9.194;2022-08-19T13:43:50;31.77;;;24.47;;
4244;SDS011;2136;48.502;9.194;2022-08-19T13:46:17;37.97;;;24.63;;
4244;SDS011;2136;48.502;9.194;2022-08-19T13:48:45;29.83;;;24.57;;
4244;SDS011;2136;48.502;9.194;2022-08-19T13:51:14;31.40;;;25.50;;
4244;SDS011;2136;48.502;9.194;2022-08-19T13:53:42;30.77;;;24.13;;
4244;SDS011;2136;48.502;9.194;2022-08-19T13:56:10;36.13;;;25.80;;
4244;SDS011;2136;48.502;9.194;2022-08-19T13:58:38;41.67;;;25.40;;
4244;SDS011;2136;48.502;9.194;2022-08-19T14:01:05;34.43;;;24.50;;
4244;SDS011;2136;48.502;9.194;2022-08-19T14:03:35;30.13;;;23.00;;
4244;SDS011;2136;48.502;9.194;2022-08-19T14:06:02;33.43;;;23.70;;
4244;SDS011;2136;48.502;9.194;2022-08-19T14:08:31;29.93;;;23.70;;
4244;SDS011;2136;48.502;9.194;2022-08-19T14:10:57;34.83;;;24.73;;
4244;SDS011;2136;48.502;9.194;2022-08-19T14:13:24;35.07;;;24.87;;
4244;SDS011;2136;48.502;9.194;2022-08-19T14:15:52;32.00;;;23.13;;
4244;SDS011;2136;48.502;9.194;2022-08-19T14:18:19;31.63;;;22.87;;
4244;SDS011;2136;48.502;9.194;2022-08-19T14:20:46;30.83;;;24.80;;
4244;SDS011;2136;48.502;9.194;2022-08-19T14:23:14;35.10;;;26.00;;
4244;SDS011;2136;48.502;9.194;2022-08-19T14:25:42;30.73;;;21.87;;
4244;SDS011;2136;48.502;9.194;2022-08-19T14:28:09;35.77;;;24.57;;
4244;SDS011;2136;48.502;9.194;2022-08-19T14:30:36;45.87;;;24.63;;
4244;SDS011;2136;48.502;9.194;2022-08-19T14:33:04;34.37;;;24.13;;
4244;SDS011;2136;48.502;9.194;2022-08-19T14:35:33;34.03;;;24.77;;
4244;SDS011;2136;48.502;9.194;2022-08-19T14:38:00;32.67;;;24.03;;
4244;SDS011;2136;48.502;9.194;2022-08-19T14:40:28;35.53;;;25.17;;
4244;SDS011;2136;48.502;9.194;2022-08-19T14:42:59;37.87;;;27.20;;
4244;SDS011;2136;48.502;9.194;2022-08-19T14:45:29;33.63;;;24.30;;
4244;SDS011;2136;48.502;9.194;2022-08-19T14:47:57;33.00;;;25.47;;
4244;SDS011;2136;48.502;9.194;2022-08-19T14:50:25;35.40;;;25.50;;
4244;SDS011;2136;48.502;9.194;2022-08-19T14:52:57;32.37;;;24.50;;
4244;SDS011;2136;48.502;9.194;2022-08-19T14:55:26;36.43;;;24.00;;
4244;SDS011;2136;48.502;9.194;2022-08-19T14:57:53;27.83;;;23.40;;